sensor_id;sensor_type;location;lat;lon;timestamp;pressure;altitude;pressure_sealevel;temperature;humidity
72038;BME280;59900;50.788;12.904;2022-09-24T00:01:43;97381.88;;;10.96;69.09
72038;BME280;59900;50.788;12.904;2022-09-24T00:04:10;97378.25;;;10.91;69.48
72038;BME280;59900;50.788;12.904;2022-09-24T00:06:46;97379.88;;;10.92;69.52
72038;BME280;59900;50.788;12.904;2022-09-24T00:09:14;97379.63;;;10.87;69.96
72038;BME280;59900;50.788;12.904;2022-09-24T00:11:40;97370.34;;;10.84;69.81
72038;BME280;59900;50.788;12.904;2022-09-24T00:14:07;97369.34;;;10.85;69.61
72038;BME280;59900;50.788;12.904;2022-09-24T00:16:33;97371.34;;;10.83;69.69
72038;BME280;59900;50.788;12.904;2022-09-24T00:19:00;97372.38;;;10.82;69.70
72038;BME280;59900;50.788;12.904;2022-09-24T00:21:31;97366.69;;;10.79;69.82
72038;BME280;59900;50.788;12.904;2022-09-24T00:23:59;97371.13;;;10.78;69.93
72038;BME280;59900;50.788;12.904;2022-09-24T00:26:24;97366.09;;;10.77;69.93
72038;BME280;59900;50.788;12.904;2022-09-24T00:29:10;97372.97;;;10.78;69.89
72038;BME280;59900;50.788;12.904;2022-09-24T00:31:36;97361.25;;;10.74;70.04
72038;BME280;59900;50.788;12.904;2022-09-24T00:34:02;97365.47;;;10.75;70.07
72038;BME280;59900;50.788;12.904;2022-09-24T00:36:27;97370.53;;;10.69;70.05
72038;BME280;59900;50.788;12.904;2022-09-24T00:38:55;97366.91;;;10.71;69.86
72038;BME280;59900;50.788;12.904;2022-09-24T00:41:23;97364.28;;;10.71;69.92
72038;BME280;59900;50.788;12.904;2022-09-24T00:43:49;97363.25;;;10.72;69.95
72038;BME280;59900;50.788;12.904;2022-09-24T00:46:28;97361.44;;;10.72;70.06
72038;BME280;59900;50.788;12.904;2022-09-24T00:49:13;97358.41;;;10.75;70.60
72038;BME280;59900;50.788;12.904;2022-09-24T00:51:41;97360.84;;;10.77;70.02
72038;BME280;59900;50.788;12.904;2022-09-24T00:54:11;97363.25;;;10.78;70.35
72038;BME280;59900;50.788;12.904;2022-09-24T00:56:39;97357.19;;;10.78;70.69
72038;BME280;59900;50.788;12.904;2022-09-24T00:59:08;97354.38;;;10.79;70.31
72038;BME280;59900;50.788;12.904;2022-09-24T01:01:35;97349.13;;;10.79;70.92
72038;BME280;59900;50.788;12.904;2022-09-24T01:04:02;97344.44;;;10.75;70.52
72038;BME280;59900;50.788;12.904;2022-09-24T01:06:29;97338.00;;;10.71;70.97
72038;BME280;59900;50.788;12.904;2022-09-24T01:08:55;97335.75;;;10.67;70.73
72038;BME280;59900;50.788;12.904;2022-09-24T01:11:32;97334.75;;;10.62;70.95
72038;BME280;59900;50.788;12.904;2022-09-24T01:16:49;97324.81;;;10.51;71.57
72038;BME280;59900;50.788;12.904;2022-09-24T01:19:49;97323.41;;;10.42;71.89
72038;BME280;59900;50.788;12.904;2022-09-24T01:22:37;97321.97;;;10.39;72.15
72038;BME280;59900;50.788;12.904;2022-09-24T01:25:21;97328.25;;;10.38;72.45
72038;BME280;59900;50.788;12.904;2022-09-24T01:28:10;97324.78;;;10.31;72.87
72038;BME280;59900;50.788;12.904;2022-09-24T01:30:43;97333.28;;;10.27;73.05
72038;BME280;59900;50.788;12.904;2022-09-24T01:33:16;97328.41;;;10.24;73.22
72038;BME280;59900;50.788;12.904;2022-09-24T01:35:47;97327.59;;;10.17;73.77
72038;BME280;59900;50.788;12.904;2022-09-24T01:38:17;97334.03;;;10.14;74.13
72038;BME280;59900;50.788;12.904;2022-09-24T01:40:45;97338.44;;;10.07;74.08
72038;BME280;59900;50.788;12.904;2022-09-24T01:43:11;97330.94;;;10.04;74.21
72038;BME280;59900;50.788;12.904;2022-09-24T01:45:38;97330.72;;;9.99;74.71
72038;BME280;59900;50.788;12.904;2022-09-24T01:48:05;97325.44;;;9.92;74.73
72038;BME280;59900;50.788;12.904;2022-09-24T01:53:24;97329.88;;;9.85;75.35
72038;BME280;59900;50.788;12.904;2022-09-24T01:55:57;97318.16;;;9.81;75.58
72038;BME280;59900;50.788;12.904;2022-09-24T01:58:34;97319.75;;;9.76;75.52
72038;BME280;59900;50.788;12.904;2022-09-24T02:01:05;97311.66;;;9.71;76.04
72038;BME280;59900;50.788;12.904;2022-09-24T02:03:35;97312.06;;;9.68;76.18
72038;BME280;59900;50.788;12.904;2022-09-24T02:06:14;97308.00;;;9.65;76.36
72038;BME280;59900;50.788;12.904;2022-09-24T02:08:44;97318.06;;;9.62;76.64
72038;BME280;59900;50.788;12.904;2022-09-24T02:11:18;97313.81;;;9.61;76.46
72038;BME280;59900;50.788;12.904;2022-09-24T02:13:51;97307.75;;;9.60;76.64
72038;BME280;59900;50.788;12.904;2022-09-24T02:16:22;97312.41;;;9.58;77.04
72038;BME280;59900;50.788;12.904;2022-09-24T02:18:51;97308.97;;;9.57;77.17
72038;BME280;59900;50.788;12.904;2022-09-24T02:21:19;97308.53;;;9.54;77.28
72038;BME280;59900;50.788;12.904;2022-09-24T02:23:50;97300.88;;;9.52;77.40
72038;BME280;59900;50.788;12.904;2022-09-24T02:26:17;97294.63;;;9.53;77.76
72038;BME280;59900;50.788;12.904;2022-09-24T02:28:42;97294.81;;;9.52;77.57
72038;BME280;59900;50.788;12.904;2022-09-24T02:31:13;97289.38;;;9.53;77.39
72038;BME280;59900;50.788;12.904;2022-09-24T02:33:45;97291.81;;;9.55;77.43
72038;BME280;59900;50.788;12.904;2022-09-24T02:36:30;97284.53;;;9.57;77.04
72038;BME280;59900;50.788;12.904;2022-09-24T02:38:56;97285.78;;;9.61;77.45
72038;BME280;59900;50.788;12.904;2022-09-24T02:41:21;97286.59;;;9.62;77.24
72038;BME280;59900;50.788;12.904;2022-09-24T02:43:49;97278.91;;;9.60;76.94
72038;BME280;59900;50.788;12.904;2022-09-24T02:46:14;97285.78;;;9.61;77.30
72038;BME280;59900;50.788;12.904;2022-09-24T02:48:40;97280.53;;;9.61;77.38
72038;BME280;59900;50.788;12.904;2022-09-24T02:51:05;97285.19;;;9.59;77.15
72038;BME280;59900;50.788;12.904;2022-09-24T02:53:31;97276.66;;;9.57;76.87
72038;BME280;59900;50.788;12.904;2022-09-24T02:55:57;97280.09;;;9.57;77.73
72038;BME280;59900;50.788;12.904;2022-09-24T02:58:27;97277.69;;;9.56;76.69
72038;BME280;59900;50.788;12.904;2022-09-24T03:00:53;97271.66;;;9.62;76.43
72038;BME280;59900;50.788;12.904;2022-09-24T03:03:25;97279.16;;;9.65;76.66
72038;BME280;59900;50.788;12.904;2022-09-24T03:05:51;97279.97;;;9.66;75.92
72038;BME280;59900;50.788;12.904;2022-09-24T03:08:19;97274.94;;;9.71;75.86
72038;BME280;59900;50.788;12.904;2022-09-24T03:10:44;97278.97;;;9.73;76.10
72038;BME280;59900;50.788;12.904;2022-09-24T03:13:11;97276.94;;;9.75;76.07
72038;BME280;59900;50.788;12.904;2022-09-24T03:15:36;97271.09;;;9.73;76.16
72038;BME280;59900;50.788;12.904;2022-09-24T03:18:01;97275.91;;;9.70;76.64
72038;BME280;59900;50.788;12.904;2022-09-24T03:20:27;97278.13;;;9.66;76.59
72038;BME280;59900;50.788;12.904;2022-09-24T03:22:53;97272.47;;;9.63;76.50
72038;BME280;59900;50.788;12.904;2022-09-24T03:25:19;97259.94;;;9.58;77.48
72038;BME280;59900;50.788;12.904;2022-09-24T03:27:44;97264.38;;;9.57;77.74
72038;BME280;59900;50.788;12.904;2022-09-24T03:30:10;97265.56;;;9.55;77.51
72038;BME280;59900;50.788;12.904;2022-09-24T03:32:54;97260.31;;;9.55;77.80
72038;BME280;59900;50.788;12.904;2022-09-24T03:35:19;97256.88;;;9.54;78.18
72038;BME280;59900;50.788;12.904;2022-09-24T03:37:45;97253.88;;;9.51;78.22
72038;BME280;59900;50.788;12.904;2022-09-24T03:40:10;97256.69;;;9.49;78.19
72038;BME280;59900;50.788;12.904;2022-09-24T03:42:35;97252.63;;;9.47;78.63
72038;BME280;59900;50.788;12.904;2022-09-24T03:45:01;97257.50;;;9.50;78.67
72038;BME280;59900;50.788;12.904;2022-09-24T03:47:26;97253.44;;;9.47;79.00
72038;BME280;59900;50.788;12.904;2022-09-24T03:49:51;97243.13;;;9.46;78.66
72038;BME280;59900;50.788;12.904;2022-09-24T03:52:17;97243.53;;;9.43;78.68
72038;BME280;59900;50.788;12.904;2022-09-24T03:54:43;97241.94;;;9.42;79.06
72038;BME280;59900;50.788;12.904;2022-09-24T03:57:08;97236.69;;;9.42;78.73
72038;BME280;59900;50.788;12.904;2022-09-24T03:59:33;97229.19;;;9.39;79.02
72038;BME280;59900;50.788;12.904;2022-09-24T04:01:58;97226.97;;;9.36;78.89
72038;BME280;59900;50.788;12.904;2022-09-24T04:04:24;97227.97;;;9.35;78.85
72038;BME280;59900;50.788;12.904;2022-09-24T04:06:49;97220.50;;;9.32;79.35
72038;BME280;59900;50.788;12.904;2022-09-24T04:09:16;97226.72;;;9.31;79.83
72038;BME280;59900;50.788;12.904;2022-09-24T04:11:41;97227.53;;;9.31;79.44
72038;BME280;59900;50.788;12.904;2022-09-24T04:14:07;97221.47;;;9.31;79.51
72038;BME280;59900;50.788;12.904;2022-09-24T04:16:33;97217.06;;;9.31;80.17
72038;BME280;59900;50.788;12.904;2022-09-24T04:18:58;97219.69;;;9.31;79.90
72038;BME280;59900;50.788;12.904;2022-09-24T04:21:23;97226.13;;;9.29;80.07
72038;BME280;59900;50.788;12.904;2022-09-24T04:23:49;97220.88;;;9.29;80.33
72038;BME280;59900;50.788;12.904;2022-09-24T04:26:16;97215.03;;;9.27;79.91
72038;BME280;59900;50.788;12.904;2022-09-24T04:28:44;97212.19;;;9.28;80.12
72038;BME280;59900;50.788;12.904;2022-09-24T04:31:09;97208.75;;;9.28;80.03
72038;BME280;59900;50.788;12.904;2022-09-24T04:33:35;97211.59;;;9.26;80.25
72038;BME280;59900;50.788;12.904;2022-09-24T04:36:00;97204.53;;;9.27;80.31
72038;BME280;59900;50.788;12.904;2022-09-24T04:38:25;97208.38;;;9.24;80.72
72038;BME280;59900;50.788;12.904;2022-09-24T04:40:51;97213.41;;;9.26;80.36
72038;BME280;59900;50.788;12.904;2022-09-24T04:43:16;97212.59;;;9.25;79.89
72038;BME280;59900;50.788;12.904;2022-09-24T04:45:43;97211.78;;;9.25;80.00
72038;BME280;59900;50.788;12.904;2022-09-24T04:48:10;97212.59;;;9.25;80.16
72038;BME280;59900;50.788;12.904;2022-09-24T04:50:36;97221.66;;;9.23;80.39
72038;BME280;59900;50.788;12.904;2022-09-24T04:53:02;97218.66;;;9.26;78.45
72038;BME280;59900;50.788;12.904;2022-09-24T04:55:28;97216.25;;;9.31;77.87
72038;BME280;59900;50.788;12.904;2022-09-24T04:57:57;97220.53;;;9.38;77.72
72038;BME280;59900;50.788;12.904;2022-09-24T05:00:23;97229.81;;;9.41;77.29
72038;BME280;59900;50.788;12.904;2022-09-24T05:02:57;97228.00;;;9.41;76.77
72038;BME280;59900;50.788;12.904;2022-09-24T05:05:30;97228.81;;;9.42;76.73
72038;BME280;59900;50.788;12.904;2022-09-24T05:07:56;97229.41;;;9.44;76.94
72038;BME280;59900;50.788;12.904;2022-09-24T05:10:23;97231.03;;;9.45;76.85
72038;BME280;59900;50.788;12.904;2022-09-24T05:12:48;97227.00;;;9.49;76.62
72038;BME280;59900;50.788;12.904;2022-09-24T05:15:13;97230.66;;;9.54;76.88
72038;BME280;59900;50.788;12.904;2022-09-24T05:17:39;97225.22;;;9.56;77.48
72038;BME280;59900;50.788;12.904;2022-09-24T05:20:06;97225.84;;;9.58;77.35
72038;BME280;59900;50.788;12.904;2022-09-24T05:22:32;97214.94;;;9.61;77.48
72038;BME280;59900;50.788;12.904;2022-09-24T05:25:00;97225.25;;;9.63;78.37
72038;BME280;59900;50.788;12.904;2022-09-24T05:27:25;97226.84;;;9.64;78.54
72038;BME280;59900;50.788;12.904;2022-09-24T05:29:51;97224.44;;;9.62;78.50
72038;BME280;59900;50.788;12.904;2022-09-24T05:32:18;97232.91;;;9.64;78.28
72038;BME280;59900;50.788;12.904;2022-09-24T05:34:44;97227.88;;;9.63;78.66
72038;BME280;59900;50.788;12.904;2022-09-24T05:37:10;97232.31;;;9.62;78.71
72038;BME280;59900;50.788;12.904;2022-09-24T05:39:35;97232.31;;;9.62;78.66
72038;BME280;59900;50.788;12.904;2022-09-24T05:42:01;97242.59;;;9.64;78.97
72038;BME280;59900;50.788;12.904;2022-09-24T05:44:28;97245.22;;;9.64;78.59
72038;BME280;59900;50.788;12.904;2022-09-24T05:46:53;97239.97;;;9.64;79.27
72038;BME280;59900;50.788;12.904;2022-09-24T05:49:19;97237.34;;;9.64;79.33
72038;BME280;59900;50.788;12.904;2022-09-24T05:51:46;97248.47;;;9.66;79.39
72038;BME280;59900;50.788;12.904;2022-09-24T05:54:11;97247.28;;;9.68;78.89
72038;BME280;59900;50.788;12.904;2022-09-24T05:56:37;97244.44;;;9.70;79.20
72038;BME280;59900;50.788;12.904;2022-09-24T05:59:02;97250.09;;;9.73;79.21
72038;BME280;59900;50.788;12.904;2022-09-24T06:01:28;97250.69;;;9.75;79.79
72038;BME280;59900;50.788;12.904;2022-09-24T06:03:55;97253.16;;;9.77;80.16
72038;BME280;59900;50.788;12.904;2022-09-24T06:06:20;97252.53;;;9.81;79.79
72038;BME280;59900;50.788;12.904;2022-09-24T06:08:46;97249.53;;;9.84;80.00
72038;BME280;59900;50.788;12.904;2022-09-24T06:11:11;97253.56;;;9.87;79.51
72038;BME280;59900;50.788;12.904;2022-09-24T06:13:37;97245.50;;;9.88;79.43
72038;BME280;59900;50.788;12.904;2022-09-24T06:16:05;97239.66;;;9.93;78.58
72038;BME280;59900;50.788;12.904;2022-09-24T06:18:35;97238.84;;;9.99;78.82
72038;BME280;59900;50.788;12.904;2022-09-24T06:21:04;97236.25;;;10.05;79.15
72038;BME280;59900;50.788;12.904;2022-09-24T06:23:32;97243.50;;;10.10;79.32
72038;BME280;59900;50.788;12.904;2022-09-24T06:25:57;97237.72;;;10.15;79.81
72038;BME280;59900;50.788;12.904;2022-09-24T06:28:23;97241.53;;;10.19;79.87
72038;BME280;59900;50.788;12.904;2022-09-24T06:30:52;97245.97;;;10.25;79.91
72038;BME280;59900;50.788;12.904;2022-09-24T06:33:18;97252.47;;;10.29;80.37
72038;BME280;59900;50.788;12.904;2022-09-24T06:35:47;97250.03;;;10.34;80.01
72038;BME280;59900;50.788;12.904;2022-09-24T06:38:14;97248.41;;;10.39;80.44
72038;BME280;59900;50.788;12.904;2022-09-24T06:40:42;97248.03;;;10.42;79.84
72038;BME280;59900;50.788;12.904;2022-09-24T06:43:10;97247.84;;;10.44;79.48
72038;BME280;59900;50.788;12.904;2022-09-24T06:45:36;97241.78;;;10.50;79.89
72038;BME280;59900;50.788;12.904;2022-09-24T06:48:03;97242.19;;;10.53;79.65
72038;BME280;59900;50.788;12.904;2022-09-24T06:50:31;97244.00;;;10.59;79.50
72038;BME280;59900;50.788;12.904;2022-09-24T06:52:57;97243.97;;;10.66;79.14
72038;BME280;59900;50.788;12.904;2022-09-24T06:55:22;97240.34;;;10.74;79.01
72038;BME280;59900;50.788;12.904;2022-09-24T06:57:48;97241.94;;;10.81;79.38
72038;BME280;59900;50.788;12.904;2022-09-24T07:00:14;97245.56;;;10.87;78.86
72038;BME280;59900;50.788;12.904;2022-09-24T07:02:40;97243.16;;;10.92;79.08
72038;BME280;59900;50.788;12.904;2022-09-24T07:05:06;97244.34;;;10.96;79.30
72038;BME280;59900;50.788;12.904;2022-09-24T07:07:33;97243.75;;;11.00;79.69
72038;BME280;59900;50.788;12.904;2022-09-24T07:10:00;97238.09;;;11.03;79.97
72038;BME280;59900;50.788;12.904;2022-09-24T07:12:27;97251.00;;;11.11;79.96
72038;BME280;59900;50.788;12.904;2022-09-24T07:14:52;97246.50;;;11.18;80.01
72038;BME280;59900;50.788;12.904;2022-09-24T07:17:17;97246.91;;;11.22;78.84
72038;BME280;59900;50.788;12.904;2022-09-24T07:19:43;97241.88;;;11.27;79.02
72038;BME280;59900;50.788;12.904;2022-09-24T07:22:08;97243.03;;;11.31;78.75
72038;BME280;59900;50.788;12.904;2022-09-24T07:24:33;97241.41;;;11.37;78.75
72038;BME280;59900;50.788;12.904;2022-09-24T07:26:59;97242.03;;;11.39;78.85
72038;BME280;59900;50.788;12.904;2022-09-24T07:29:24;97234.50;;;11.42;78.48
72038;BME280;59900;50.788;12.904;2022-09-24T07:31:49;97244.59;;;11.45;77.97
72038;BME280;59900;50.788;12.904;2022-09-24T07:34:15;97239.97;;;11.47;78.46
72038;BME280;59900;50.788;12.904;2022-09-24T07:36:40;97231.03;;;11.48;77.96
72038;BME280;59900;50.788;12.904;2022-09-24T07:39:06;97240.56;;;11.49;77.81
72038;BME280;59900;50.788;12.904;2022-09-24T07:41:31;97238.75;;;11.50;77.68
72038;BME280;59900;50.788;12.904;2022-09-24T07:43:58;97244.19;;;11.48;77.67
72038;BME280;59900;50.788;12.904;2022-09-24T07:46:23;97239.97;;;11.47;77.89
72038;BME280;59900;50.788;12.904;2022-09-24T07:48:51;97240.56;;;11.49;77.98
72038;BME280;59900;50.788;12.904;2022-09-24T07:51:16;97238.91;;;11.55;77.94
72038;BME280;59900;50.788;12.904;2022-09-24T07:53:41;97244.34;;;11.60;77.65
72038;BME280;59900;50.788;12.904;2022-09-24T07:56:07;97241.69;;;11.66;77.49
72038;BME280;59900;50.788;12.904;2022-09-24T07:58:32;97249.38;;;11.74;77.52
72038;BME280;59900;50.788;12.904;2022-09-24T08:00:58;97248.13;;;11.84;77.52
72038;BME280;59900;50.788;12.904;2022-09-24T08:03:23;97252.13;;;11.93;76.93
72038;BME280;59900;50.788;12.904;2022-09-24T08:05:48;97250.84;;;12.02;77.35
72038;BME280;59900;50.788;12.904;2022-09-24T08:08:14;97243.31;;;12.12;77.11
72038;BME280;59900;50.788;12.904;2022-09-24T08:10:39;97244.66;;;12.21;76.93
72038;BME280;59900;50.788;12.904;2022-09-24T08:13:06;97250.25;;;12.31;76.58
72038;BME280;59900;50.788;12.904;2022-09-24T08:15:31;97254.41;;;12.45;75.22
72038;BME280;59900;50.788;12.904;2022-09-24T08:18:03;97256.72;;;12.60;75.45
72038;BME280;59900;50.788;12.904;2022-09-24T08:20:30;97250.78;;;12.71;74.94
72038;BME280;59900;50.788;12.904;2022-09-24T08:23:06;97250.44;;;12.85;74.06
72038;BME280;59900;50.788;12.904;2022-09-24T08:25:33;97247.28;;;12.95;72.97
72038;BME280;59900;50.788;12.904;2022-09-24T08:28:03;97250.81;;;13.07;70.20
72038;BME280;59900;50.788;12.904;2022-09-24T08:30:28;97262.75;;;13.16;69.03
72038;BME280;59900;50.788;12.904;2022-09-24T08:32:55;97254.63;;;13.18;68.27
72038;BME280;59900;50.788;12.904;2022-09-24T08:35:21;97256.81;;;13.21;68.11
72038;BME280;59900;50.788;12.904;2022-09-24T08:37:46;97256.28;;;13.30;68.71
72038;BME280;59900;50.788;12.904;2022-09-24T08:40:20;97259.69;;;13.37;67.84
72038;BME280;59900;50.788;12.904;2022-09-24T08:42:56;97251.09;;;13.42;67.30
72038;BME280;59900;50.788;12.904;2022-09-24T08:45:24;97250.22;;;13.48;67.78
72038;BME280;59900;50.788;12.904;2022-09-24T08:48:16;97242.59;;;13.58;67.86
72038;BME280;59900;50.788;12.904;2022-09-24T08:50:51;97238.00;;;13.65;66.33
72038;BME280;59900;50.788;12.904;2022-09-24T08:53:53;97233.22;;;13.74;65.30
72038;BME280;59900;50.788;12.904;2022-09-24T08:56:26;97235.13;;;13.85;65.79
72038;BME280;59900;50.788;12.904;2022-09-24T08:58:59;97235.84;;;13.92;65.57
72038;BME280;59900;50.788;12.904;2022-09-24T09:01:43;97238.41;;;13.98;65.94
72038;BME280;59900;50.788;12.904;2022-09-24T09:06:51;97226.84;;;14.11;65.91
72038;BME280;59900;50.788;12.904;2022-09-24T09:09:22;97230.41;;;14.17;64.61
72038;BME280;59900;50.788;12.904;2022-09-24T09:11:52;97236.88;;;14.21;63.95
72038;BME280;59900;50.788;12.904;2022-09-24T09:15:17;97241.47;;;14.25;62.94
72038;BME280;59900;50.788;12.904;2022-09-24T09:17:39;97244.41;;;14.35;62.85
72038;BME280;59900;50.788;12.904;2022-09-24T09:20:12;97237.97;;;14.43;62.91
72038;BME280;59900;50.788;12.904;2022-09-24T09:22:49;97246.63;;;14.50;62.13
72038;BME280;59900;50.788;12.904;2022-09-24T09:25:19;97243.66;;;14.58;61.67
72038;BME280;59900;50.788;12.904;2022-09-24T09:27:50;97250.31;;;14.61;62.03
72038;BME280;59900;50.788;12.904;2022-09-24T09:30:17;97238.00;;;14.66;62.49
72038;BME280;59900;50.788;12.904;2022-09-24T09:33:06;97246.66;;;14.73;60.76
72038;BME280;59900;50.788;12.904;2022-09-24T09:35:46;97244.94;;;14.79;61.54
72038;BME280;59900;50.788;12.904;2022-09-24T09:38:35;97239.84;;;14.89;61.14
72038;BME280;59900;50.788;12.904;2022-09-24T09:44:11;97238.00;;;15.12;61.71
72038;BME280;59900;50.788;12.904;2022-09-24T09:46:43;97227.31;;;15.19;62.04
72038;BME280;59900;50.788;12.904;2022-09-24T09:49:12;97230.97;;;15.30;61.47
72038;BME280;59900;50.788;12.904;2022-09-24T09:51:41;97228.75;;;15.38;61.67
72038;BME280;59900;50.788;12.904;2022-09-24T09:54:06;97229.81;;;15.49;61.77
72038;BME280;59900;50.788;12.904;2022-09-24T09:56:48;97226.47;;;15.53;59.07
72038;BME280;59900;50.788;12.904;2022-09-24T09:59:20;97224.25;;;15.62;59.80
72038;BME280;59900;50.788;12.904;2022-09-24T10:01:49;97226.41;;;15.65;59.05
72038;BME280;59900;50.788;12.904;2022-09-24T10:04:36;97232.06;;;15.68;58.21
72038;BME280;59900;50.788;12.904;2022-09-24T10:07:04;97226.84;;;15.74;58.20
72038;BME280;59900;50.788;12.904;2022-09-24T10:09:30;97228.00;;;15.78;58.37
72038;BME280;59900;50.788;12.904;2022-09-24T10:14:33;97229.72;;;15.84;57.89
72038;BME280;59900;50.788;12.904;2022-09-24T10:16:59;97226.25;;;15.83;57.76
72038;BME280;59900;50.788;12.904;2022-09-24T10:19:31;97224.38;;;15.95;57.87
72038;BME280;59900;50.788;12.904;2022-09-24T10:22:07;97223.97;;;16.03;57.98
72038;BME280;59900;50.788;12.904;2022-09-24T10:24:35;97218.06;;;16.13;58.54
72038;BME280;59900;50.788;12.904;2022-09-24T10:27:09;97225.38;;;16.22;58.61
72038;BME280;59900;50.788;12.904;2022-09-24T10:29:35;97221.88;;;16.34;60.14
72038;BME280;59900;50.788;12.904;2022-09-24T10:32:22;97219.13;;;16.45;58.02
72038;BME280;59900;50.788;12.904;2022-09-24T10:35:03;97214.63;;;16.46;57.62
72038;BME280;59900;50.788;12.904;2022-09-24T10:37:30;97213.78;;;16.57;57.49
72038;BME280;59900;50.788;12.904;2022-09-24T10:40:10;97222.78;;;16.56;56.38
72038;BME280;59900;50.788;12.904;2022-09-24T10:42:36;97213.31;;;16.60;57.08
72038;BME280;59900;50.788;12.904;2022-09-24T10:45:02;97217.97;;;16.69;56.56
72038;BME280;59900;50.788;12.904;2022-09-24T10:50:49;97236.09;;;16.94;55.91
72038;BME280;59900;50.788;12.904;2022-09-24T10:56:20;97219.09;;;17.12;55.47
72038;BME280;59900;50.788;12.904;2022-09-24T10:59:08;97222.34;;;17.14;55.22
72038;BME280;59900;50.788;12.904;2022-09-24T11:04:31;97223.44;;;17.18;54.26
72038;BME280;59900;50.788;12.904;2022-09-24T11:07:37;97219.75;;;17.19;55.91
72038;BME280;59900;50.788;12.904;2022-09-24T11:10:33;97221.91;;;17.22;54.36
72038;BME280;59900;50.788;12.904;2022-09-24T11:13:22;97214.16;;;17.20;52.38
72038;BME280;59900;50.788;12.904;2022-09-24T11:16:14;97220.19;;;17.32;53.53
72038;BME280;59900;50.788;12.904;2022-09-24T11:18:56;97221.63;;;17.40;53.85
72038;BME280;59900;50.788;12.904;2022-09-24T11:21:32;97218.38;;;17.55;54.03
72038;BME280;59900;50.788;12.904;2022-09-24T11:26:59;97207.22;;;17.79;52.52
72038;BME280;59900;50.788;12.904;2022-09-24T11:29:45;97197.94;;;17.82;52.00
72038;BME280;59900;50.788;12.904;2022-09-24T11:32:39;97203.66;;;17.90;51.23
72038;BME280;59900;50.788;12.904;2022-09-24T11:35:33;97209.47;;;17.87;51.24
72038;BME280;59900;50.788;12.904;2022-09-24T11:38:29;97193.94;;;17.79;51.74
72038;BME280;59900;50.788;12.904;2022-09-24T11:41:32;97191.34;;;17.84;51.75
72038;BME280;59900;50.788;12.904;2022-09-24T11:44:18;97190.72;;;17.77;52.61
72038;BME280;59900;50.788;12.904;2022-09-24T11:49:41;97188.94;;;18.10;53.12
72038;BME280;59900;50.788;12.904;2022-09-24T11:52:26;97193.13;;;18.32;51.65
72038;BME280;59900;50.788;12.904;2022-09-24T11:55:12;97186.25;;;18.36;50.39
72038;BME280;59900;50.788;12.904;2022-09-24T11:58:05;97189.31;;;18.50;50.32
72038;BME280;59900;50.788;12.904;2022-09-24T12:00:43;97188.00;;;18.53;49.16
72038;BME280;59900;50.788;12.904;2022-09-24T12:05:43;97180.03;;;18.94;50.85
72038;BME280;59900;50.788;12.904;2022-09-24T12:10:51;97180.72;;;19.22;50.05
72038;BME280;59900;50.788;12.904;2022-09-24T12:13:26;97179.69;;;19.28;50.19
72038;BME280;59900;50.788;12.904;2022-09-24T12:16:00;97176.97;;;19.23;48.61
72038;BME280;59900;50.788;12.904;2022-09-24T12:18:43;97178.56;;;19.19;49.72
72038;BME280;59900;50.788;12.904;2022-09-24T12:21:16;97179.38;;;19.19;49.29
72038;BME280;59900;50.788;12.904;2022-09-24T12:23:45;97176.38;;;19.06;49.59
72038;BME280;59900;50.788;12.904;2022-09-24T12:26:12;97168.56;;;18.94;49.87
72038;BME280;59900;50.788;12.904;2022-09-24T12:28:49;97172.53;;;18.86;51.07
72038;BME280;59900;50.788;12.904;2022-09-24T12:31:48;97175.19;;;18.86;51.22
72038;BME280;59900;50.788;12.904;2022-09-24T12:35:04;97174.41;;;18.91;50.70
72038;BME280;59900;50.788;12.904;2022-09-24T12:37:36;97170.00;;;19.07;50.10
72038;BME280;59900;50.788;12.904;2022-09-24T12:42:48;97157.78;;;19.78;48.84
72038;BME280;59900;50.788;12.904;2022-09-24T12:45:19;97161.81;;;19.95;48.05
72038;BME280;59900;50.788;12.904;2022-09-24T12:47:52;97166.06;;;19.96;48.31
72038;BME280;59900;50.788;12.904;2022-09-24T12:50:38;97164.72;;;19.94;47.47
72038;BME280;59900;50.788;12.904;2022-09-24T12:53:18;97163.66;;;19.90;47.28
72038;BME280;59900;50.788;12.904;2022-09-24T12:55:48;97155.16;;;20.13;47.58
72038;BME280;59900;50.788;12.904;2022-09-24T12:58:42;97150.13;;;20.57;47.64
72038;BME280;59900;50.788;12.904;2022-09-24T13:06:40;97141.44;;;21.79;45.59
72038;BME280;59900;50.788;12.904;2022-09-24T13:09:39;97134.41;;;21.94;43.19
72038;BME280;59900;50.788;12.904;2022-09-24T13:14:41;97136.34;;;22.56;43.08
72038;BME280;59900;50.788;12.904;2022-09-24T13:17:07;97138.19;;;22.89;42.98
72038;BME280;59900;50.788;12.904;2022-09-24T13:19:42;97135.75;;;22.93;40.07
72038;BME280;59900;50.788;12.904;2022-09-24T13:22:20;97140.88;;;22.89;41.17
72038;BME280;59900;50.788;12.904;2022-09-24T13:24:52;97138.94;;;23.18;41.98
72038;BME280;59900;50.788;12.904;2022-09-24T13:30:19;97139.47;;;23.44;39.43
72038;BME280;59900;50.788;12.904;2022-09-24T13:35:19;97131.94;;;23.65;38.78
72038;BME280;59900;50.788;12.904;2022-09-24T13:37:52;97140.19;;;23.02;37.98
72038;BME280;59900;50.788;12.904;2022-09-24T13:40:27;97136.59;;;22.88;40.56
72038;BME280;59900;50.788;12.904;2022-09-24T13:43:01;97135.53;;;23.13;39.33
72038;BME280;59900;50.788;12.904;2022-09-24T13:45:29;97128.78;;;22.92;40.55
72038;BME280;59900;50.788;12.904;2022-09-24T13:47:57;97131.69;;;22.66;40.83
72038;BME280;59900;50.788;12.904;2022-09-24T13:50:30;97130.50;;;22.49;42.77
72038;BME280;59900;50.788;12.904;2022-09-24T13:53:03;97128.25;;;22.32;43.26
72038;BME280;59900;50.788;12.904;2022-09-24T13:55:42;97125.22;;;22.10;42.70
72038;BME280;59900;50.788;12.904;2022-09-24T13:58:28;97126.56;;;22.07;43.69
72038;BME280;59900;50.788;12.904;2022-09-24T14:00:54;97126.44;;;22.22;41.24
72038;BME280;59900;50.788;12.904;2022-09-24T14:03:30;97122.00;;;22.42;40.96